createdAt,value
2022-12-18T00:01:54.937Z,64.85
2022-12-18T00:07:00.052Z,79.07
2022-12-18T00:17:17.500Z,64.85
2022-12-18T00:22:19.304Z,80.15
2022-12-18T00:27:20.972Z,80.70
2022-12-18T00:32:22.728Z,66.70
2022-12-18T00:37:25.414Z,69.07
2022-12-18T00:42:45.576Z,62.05
2022-12-18T00:47:47.760Z,67.47
2022-12-18T00:52:49.839Z,73.38
2022-12-18T00:57:53.345Z,65.28
2022-12-18T01:02:55.194Z,71.32
2022-12-18T01:07:57.416Z,68.35
2022-12-18T01:12:59.127Z,73.78
2022-12-18T01:18:00.854Z,67.05
2022-12-18T01:23:03.534Z,65.85
2022-12-18T01:28:11.272Z,68.65
2022-12-18T01:33:13.019Z,71.22
2022-12-18T01:38:14.662Z,64.60
2022-12-18T01:43:16.311Z,66.57
2022-12-18T01:48:17.980Z,60.67
2022-12-18T01:53:22.665Z,63.08
2022-12-18T01:58:49.354Z,59.03
2022-12-18T02:03:52.480Z,63.25
2022-12-18T02:09:07.255Z,64.38
2022-12-18T02:14:44.132Z,66.15
2022-12-18T02:19:57.939Z,61.10
2022-12-18T02:25:22.507Z,67.13
2022-12-18T02:30:24.734Z,61.72
2022-12-18T02:35:30.525Z,71.57
2022-12-18T02:40:32.889Z,65.13
2022-12-18T02:45:34.625Z,62.22
2022-12-18T02:50:44.801Z,74.78
2022-12-18T02:56:12.682Z,66.05
2022-12-18T03:01:25.565Z,61.22
2022-12-18T03:06:44.585Z,66.43
2022-12-18T03:12:14.212Z,68.65
2022-12-18T03:17:21.255Z,68.13
2022-12-18T03:22:25.951Z,59.63
2022-12-18T03:27:30.826Z,69.05
2022-12-18T03:38:54.964Z,61.85
2022-12-18T03:44:29.868Z,59.78
2022-12-18T03:50:09.600Z,59.10
2022-12-18T03:55:14.192Z,62.47
2022-12-18T04:00:19.152Z,57.10
2022-12-18T04:05:22.900Z,68.28
2022-12-18T04:10:24.620Z,65.13
2022-12-18T04:15:26.446Z,56.33
2022-12-18T04:20:28.131Z,58.20
2022-12-18T04:25:30.069Z,57.92
2022-12-18T04:30:31.730Z,53.17
2022-12-18T04:35:33.327Z,55.13
2022-12-18T04:40:36.699Z,52.47
2022-12-18T04:45:38.405Z,52.08
2022-12-18T04:50:40.025Z,55.30
2022-12-18T04:55:42.580Z,58.35
2022-12-18T05:00:44.240Z,50.35
2022-12-18T05:05:45.896Z,52.58
2022-12-18T05:10:47.544Z,58.10
2022-12-18T05:15:53.659Z,51.25
2022-12-18T05:20:55.898Z,52.05
2022-12-18T05:26:00.631Z,55.28
2022-12-18T05:31:04.203Z,51.80
2022-12-18T05:36:08.608Z,58.58
2022-12-18T05:41:10.380Z,55.92
2022-12-18T05:46:17.574Z,58.90
2022-12-18T05:51:21.182Z,55.08
2022-12-18T05:56:24.096Z,49.45
2022-12-18T06:01:27.718Z,56.05
2022-12-18T06:06:29.989Z,54.97
2022-12-18T06:11:31.603Z,56.75
2022-12-18T06:16:33.860Z,58.22
2022-12-18T06:21:35.768Z,58.65
2022-12-18T06:26:39.890Z,51.58
2022-12-18T06:31:41.626Z,46.83
2022-12-18T06:36:43.348Z,55.58
2022-12-18T06:41:45.774Z,52.00
2022-12-18T06:46:47.555Z,48.97
2022-12-18T06:51:49.159Z,50.70
2022-12-18T06:56:50.876Z,51.72
2022-12-18T07:01:52.863Z,52.80
2022-12-18T07:06:54.612Z,50.13
2022-12-18T07:11:57.160Z,52.22
2022-12-18T07:16:59.647Z,51.85
2022-12-18T07:22:02.643Z,52.35
2022-12-18T07:27:04.797Z,55.13
2022-12-18T07:32:34.374Z,51.28
2022-12-18T07:37:36.999Z,46.70
2022-12-18T07:42:38.852Z,46.80
2022-12-18T07:47:42.292Z,55.03
2022-12-18T07:52:44.054Z,53.95
2022-12-18T07:57:51.285Z,51.63
2022-12-18T08:02:54.530Z,51.63
2022-12-18T08:07:57.480Z,52.17
2022-12-18T08:13:04.704Z,49.60
2022-12-18T08:18:10.179Z,56.60
2022-12-18T08:23:15.688Z,48.88
2022-12-18T08:28:17.436Z,53.47
2022-12-18T08:33:19.365Z,49.63
2022-12-18T08:38:21.158Z,52.85
2022-12-18T08:43:41.687Z,52.08
2022-12-18T08:48:44.690Z,53.13
2022-12-18T08:53:47.237Z,51.95
2022-12-18T08:58:48.900Z,51.10
2022-12-18T09:03:52.372Z,50.47
2022-12-18T09:08:54.299Z,49.92
2022-12-18T09:13:57.440Z,44.72
2022-12-18T09:19:00.952Z,48.90
2022-12-18T09:24:03.357Z,48.28
2022-12-18T09:29:05.671Z,47.58
2022-12-18T09:34:08.798Z,51.30
2022-12-18T09:39:10.501Z,45.53
2022-12-18T09:44:19.399Z,79.18
2022-12-18T09:49:26.523Z,79.28
2022-12-18T09:54:37.023Z,90.72
2022-12-18T10:06:13.134Z,48.10
2022-12-18T10:11:41.430Z,39.85
2022-12-18T10:16:55.920Z,56.45
2022-12-18T10:22:12.249Z,97.00
2022-12-18T10:27:17.179Z,59.92
2022-12-18T10:32:21.856Z,48.03
2022-12-18T10:37:26.671Z,38.72
2022-12-18T10:42:28.344Z,36.75
2022-12-18T10:47:30.220Z,37.53
2022-12-18T10:52:32.052Z,40.45
2022-12-18T10:57:42.715Z,43.00
2022-12-18T11:02:44.677Z,44.65
2022-12-18T11:07:51.815Z,39.92
2022-12-18T11:12:54.677Z,45.25
2022-12-18T11:17:56.949Z,43.60
2022-12-18T11:23:12.338Z,47.03
2022-12-18T11:29:24.143Z,47.47
2022-12-18T11:34:32.223Z,49.72
2022-12-18T11:39:43.307Z,44.90
2022-12-18T11:45:00.014Z,43.67
2022-12-18T11:50:03.746Z,42.88
2022-12-18T11:55:13.179Z,49.20
2022-12-18T12:00:20.698Z,46.80
2022-12-18T12:05:52.341Z,45.22
2022-12-18T12:11:09.069Z,40.90
2022-12-18T12:16:42.046Z,46.63
2022-12-18T12:22:18.592Z,43.05
2022-12-18T12:27:35.127Z,42.47
2022-12-18T12:32:50.779Z,45.85
2022-12-18T12:38:07.307Z,53.55
2022-12-18T12:43:50.529Z,43.47
2022-12-18T12:49:16.943Z,49.17
2022-12-18T12:54:25.767Z,45.28
2022-12-18T12:59:49.392Z,50.20
2022-12-18T13:05:19.035Z,44.67
2022-12-18T13:10:27.106Z,45.70
2022-12-18T13:21:03.259Z,48.25
2022-12-18T13:26:11.515Z,49.97
2022-12-18T13:31:41.825Z,49.45
2022-12-18T13:36:43.836Z,54.90
2022-12-18T13:41:50.038Z,52.92
2022-12-18T13:46:53.637Z,55.33
2022-12-18T13:51:57.494Z,56.03
2022-12-18T13:57:01.840Z,57.35
2022-12-18T14:02:14.901Z,56.63
2022-12-18T14:07:20.669Z,60.83
2022-12-18T14:12:46.426Z,59.58
2022-12-18T14:17:52.050Z,59.65
2022-12-18T14:22:54.091Z,68.13
2022-12-18T14:28:08.487Z,60.70
2022-12-18T14:33:21.591Z,58.28
2022-12-18T14:38:40.994Z,58.42
2022-12-18T14:43:45.248Z,58.53
2022-12-18T14:48:49.086Z,58.40
2022-12-18T14:54:16.090Z,58.70
2022-12-18T14:59:24.642Z,64.20
2022-12-18T15:04:31.831Z,61.72
2022-12-18T15:09:33.732Z,61.25
2022-12-18T15:14:42.011Z,61.50
2022-12-18T15:19:46.623Z,61.53
2022-12-18T15:24:49.032Z,68.25
2022-12-18T15:30:09.661Z,62.22
2022-12-18T15:35:26.834Z,66.22
2022-12-18T15:40:47.384Z,67.47
2022-12-18T15:46:12.835Z,62.80
2022-12-18T15:51:22.882Z,68.32
2022-12-18T15:56:44.836Z,68.70
2022-12-18T16:01:49.387Z,65.68
2022-12-18T16:07:14.326Z,64.05
2022-12-18T16:12:23.374Z,66.00
2022-12-18T16:17:25.749Z,63.53
2022-12-18T16:22:29.670Z,70.85
2022-12-18T16:27:31.931Z,72.07
2022-12-18T16:32:34.947Z,94.68
2022-12-18T16:37:37.271Z,76.22
2022-12-18T16:42:41.366Z,68.45
2022-12-18T16:47:43.594Z,71.55
2022-12-18T16:52:45.300Z,69.30
2022-12-18T16:57:47.157Z,63.25
2022-12-18T17:02:48.919Z,70.50
2022-12-18T17:07:50.794Z,72.00
2022-12-18T17:12:52.714Z,67.68
2022-12-18T17:17:54.348Z,72.20
2022-12-18T17:22:59.281Z,71.70
2022-12-18T17:28:02.634Z,69.13
2022-12-18T17:33:04.692Z,73.00
2022-12-18T17:38:07.182Z,72.30
2022-12-18T17:43:10.028Z,63.00
2022-12-18T17:48:12.392Z,66.90
2022-12-18T17:53:17.561Z,68.13
2022-12-18T17:58:19.317Z,70.68
2022-12-18T18:03:21.723Z,75.03
2022-12-18T18:08:24.662Z,67.32
2022-12-18T18:13:47.126Z,70.00
2022-12-18T18:18:49.090Z,65.13
2022-12-18T18:23:52.389Z,75.25
2022-12-18T18:28:55.919Z,75.13
2022-12-18T18:33:59.375Z,71.07
2022-12-18T18:39:02.389Z,81.55
2022-12-18T18:44:06.282Z,78.95
2022-12-18T18:49:08.452Z,73.68
2022-12-18T18:54:11.507Z,73.20
2022-12-18T18:59:15.660Z,76.38
2022-12-18T19:04:17.415Z,73.65
2022-12-18T19:09:23.265Z,74.28
2022-12-18T19:14:25.230Z,80.45
2022-12-18T19:19:27.350Z,83.35
2022-12-18T19:24:29.431Z,92.28
2022-12-18T19:29:31.137Z,73.53
2022-12-18T19:34:34.513Z,72.72
2022-12-18T19:39:36.247Z,73.35
2022-12-18T19:44:38.100Z,72.07
2022-12-18T19:49:39.957Z,71.60
2022-12-18T19:54:43.834Z,75.72
2022-12-18T19:59:45.594Z,66.78
2022-12-18T20:04:49.896Z,76.88
2022-12-18T20:09:59.594Z,66.30
2022-12-18T20:15:04.856Z,68.30
2022-12-18T20:20:07.215Z,69.07
2022-12-18T20:25:10.671Z,78.82
2022-12-18T20:30:13.679Z,70.63
2022-12-18T20:35:18.115Z,77.82
2022-12-18T20:40:20.668Z,68.20
2022-12-18T20:45:23.174Z,65.85
2022-12-18T20:50:24.978Z,65.68
2022-12-18T20:55:26.735Z,63.35
2022-12-18T21:00:29.339Z,64.40
2022-12-18T21:05:31.132Z,67.85
2022-12-18T21:10:34.353Z,67.25
2022-12-18T21:15:36.920Z,63.67
2022-12-18T21:20:38.579Z,68.45
2022-12-18T21:25:40.229Z,62.92
2022-12-18T21:30:41.938Z,67.90
2022-12-18T21:35:43.601Z,64.82
2022-12-18T21:40:45.307Z,68.40
2022-12-18T21:45:47.209Z,68.55
2022-12-18T21:50:48.947Z,66.63
2022-12-18T21:56:00.457Z,65.82
2022-12-18T22:01:02.242Z,67.80
2022-12-18T22:06:09.515Z,65.00
2022-12-18T22:11:12.692Z,69.70
2022-12-18T22:16:14.351Z,65.90
2022-12-18T22:21:34.586Z,64.43
2022-12-18T22:26:40.148Z,72.72
2022-12-18T22:31:42.276Z,66.55
2022-12-18T22:36:46.759Z,64.53
2022-12-18T22:41:48.831Z,63.78
2022-12-18T22:46:56.234Z,64.13
2022-12-18T22:52:09.541Z,64.28
2022-12-18T22:57:11.277Z,63.20
2022-12-18T23:02:13.106Z,64.40
2022-12-18T23:07:15.647Z,62.72
2022-12-18T23:12:18.771Z,67.07
2022-12-18T23:17:20.459Z,68.85
2022-12-18T23:22:22.179Z,66.13
2022-12-18T23:27:23.825Z,62.80
2022-12-18T23:32:25.589Z,65.97
2022-12-18T23:37:50.231Z,64.97
2022-12-18T23:47:51.295Z,64.20
2022-12-18T23:52:53.128Z,68.72
2022-12-18T23:57:54.802Z,70.72
